Thida, AR (72165)

11:12 AM CST on March 06, 2015 (GMT -0600)
Floral & Main | Change Station
CLOSE
Current Station
Personal Weather Station
Location: Pleasant Plains, AR
Elevation: 630 ft
Nearby Weather Stations

Elev 630 ft 35.56 °N, 91.63 °W | Updated 10 seconds ago

Clear
Clear
34.5 °F
Feels Like 34 °F
N
0.0
Wind Variable Wind from NNE
Gusts 0.6 mph

Today
High -- | Low -- °F
--% Chance of Precip.
Yesterday
High -- | Low -- °F
Precip. -- in
6:29 AM 6:05 PM
Full, 99% visible
Pressure 30.58 in
Visibility 10.0 miles
Clouds Clear
Windchill 34 °F
Dew Point 20 °F
Humidity 55%
Rainfall in
Snow Depth Not available.
UV 6 out of 12
Pollen 5.90 out of 12
Air Quality Not available.
Flu Activity Not available.
METAR KBVX 061655Z AUTO 17009KT 10SM CLR 01/M10 A3058 RMK AO1

More Conditions Fewer Conditions

Pressure 30.58 in
Visibility 10.0 miles
Clouds Clear
Windchill 34 °F
Dew Point 20 °F
Humidity 55%
Rainfall in
Snow Depth Not available.
UV 6 out of 12
Pollen 5.90 out of 12
Air Quality Not available.
Flu Activity Not available.
METAR KBVX 061655Z AUTO 17009KT 10SM CLR 01/M10 A3058 RMK AO1

More Conditions Fewer Conditions

10-Day Weather Forecast

Almanac

Astronomy

Mar. 06, 2015 Rise Set
Actual Time
Civil Twilight
Nautical Twilight
Astronomical Twilight
Moon
Length of Visible Light
Length of Day
Tomorrow will be .
, % of the Moon is Illuminated

Today's Extremes

State Highs State Lows

Community

WunderPhotos

Upload Photos

1,803,338 photos uploaded!

WunderBlogs® & News

Nearby

Air Quality

  Air Quality AQ Index Pollutant
Not available.

Snow Depth

Station Depth Elevation

Earthquake Activity

City Distance Mag. Time & Date
Minimum magnitude displayed is 2.5.

Coastal Water Temperatures

Place Temperature

Nearby Weather Stations

Flood Warning
Statement as of 9:01 AM CST on March 06, 2015

The Flood Warning continues for
the Black River at Black Rock.
* Until Monday morning... or until the warning is cancelled.
* At 8:00 am Friday the stage was 15.2 feet.
* Minor flooding is occurring and minor flooding is forecast.
* Flood stage is 14.0 feet.
* Forecast... the river crested just over 15.0 feet and will fall
to below flood stage by Sunday morning.




             Fld observed forecast 7 am
location stg stg day time Sat sun Mon Tue Wed

Black River
Black Rock 14 15.2 Fri 08 am 14.8 13.9 13.2 12.8 13.0




Lat... Lon 3570 9140 3591 9125 3612 9115 3610 9101
3588 9110 3564 9128